createdAt,value
2022-08-17T00:00:01.374Z,101185.69
2022-08-17T00:05:12.041Z,101185.00
2022-08-17T00:10:18.912Z,101195.66
2022-08-17T00:15:21.671Z,101197.56
2022-08-17T00:20:30.616Z,101201.81
2022-08-17T00:25:37.342Z,101210.34
2022-08-17T00:30:51.246Z,101208.56
2022-08-17T00:35:59.036Z,101218.03
2022-08-17T00:41:05.434Z,101209.53
2022-08-17T00:46:10.858Z,101212.75
2022-08-17T00:51:22.563Z,101207.78
2022-08-17T00:56:42.711Z,101203.31
2022-08-17T01:01:46.457Z,101193.63
2022-08-17T01:06:51.229Z,101184.28
2022-08-17T01:12:02.460Z,101182.78
2022-08-17T01:17:05.424Z,101182.31
2022-08-17T01:22:16.563Z,101183.63
2022-08-17T01:27:21.462Z,101200.38
2022-08-17T01:32:33.830Z,101198.72
2022-08-17T01:37:39.590Z,101204.00
2022-08-17T01:42:57.392Z,101211.19
2022-08-17T01:48:00.271Z,101204.34
2022-08-17T01:53:04.637Z,101190.41
2022-08-17T01:58:10.093Z,101187.09
2022-08-17T02:03:14.597Z,101204.09
2022-08-17T02:08:20.380Z,101189.94
2022-08-17T02:13:24.539Z,101187.72
2022-08-17T02:18:26.929Z,101179.41
2022-08-17T02:23:30.840Z,101183.69
2022-08-17T02:28:34.941Z,101180.50
2022-08-17T02:33:43.795Z,101178.44
2022-08-17T02:38:47.992Z,101191.06
2022-08-17T02:43:49.840Z,101188.22
2022-08-17T02:48:53.950Z,101185.59
2022-08-17T02:54:03.875Z,101186.09
2022-08-17T02:59:21.167Z,101191.97
2022-08-17T03:04:25.512Z,101198.22
2022-08-17T03:09:27.291Z,101189.28
2022-08-17T03:14:32.233Z,101185.59
2022-08-17T03:19:41.544Z,101184.16
2022-08-17T03:24:47.295Z,101184.63
2022-08-17T03:29:52.877Z,101186.16
2022-08-17T03:35:00.286Z,101191.19
2022-08-17T03:40:03.917Z,101182.66
2022-08-17T03:45:10.673Z,101184.56
2022-08-17T03:50:32.732Z,101182.31
2022-08-17T03:55:56.316Z,101193.50
2022-08-17T04:00:58.147Z,101206.84
2022-08-17T04:06:02.487Z,101207.00
2022-08-17T04:11:06.362Z,101204.66
2022-08-17T04:16:08.340Z,101200.16
2022-08-17T04:21:14.844Z,101194.50
2022-08-17T04:26:52.941Z,101196.78
2022-08-17T04:31:40.707Z,101212.72
2022-08-17T04:36:42.435Z,101202.13
2022-08-17T04:42:16.956Z,101201.56
2022-08-17T04:47:19.254Z,101205.38
2022-08-17T04:52:29.858Z,101207.03
2022-08-17T04:57:45.086Z,101206.44
2022-08-17T05:02:50.924Z,101196.56
2022-08-17T05:07:56.437Z,101212.03
2022-08-17T05:13:02.595Z,101220.22
2022-08-17T05:18:08.693Z,101217.72
2022-08-17T05:23:19.943Z,101216.06
2022-08-17T05:28:27.413Z,101221.72
2022-08-17T05:33:44.327Z,101231.75
2022-08-17T05:38:50.660Z,101236.34
2022-08-17T05:43:56.485Z,101230.91
2022-08-17T05:49:08.089Z,101231.94
2022-08-17T05:54:34.822Z,101225.56
2022-08-17T05:59:58.143Z,101228.25
2022-08-17T06:05:35.017Z,101234.13
2022-08-17T06:11:16.961Z,101230.81
2022-08-17T06:16:33.656Z,101232.06
2022-08-17T06:21:42.529Z,101234.63
2022-08-17T06:26:47.545Z,101226.53
2022-08-17T06:31:52.071Z,101235.03
2022-08-17T06:37:06.504Z,101237.13
2022-08-17T06:42:55.125Z,101243.34
2022-08-17T06:47:52.649Z,101254.56
2022-08-17T06:52:58.491Z,101257.47
2022-08-17T06:58:15.977Z,101260.84
2022-08-17T07:03:37.735Z,101260.84
2022-08-17T07:09:01.236Z,101263.09
2022-08-17T07:14:17.454Z,101262.34
2022-08-17T07:19:24.908Z,101259.72
2022-08-17T07:24:47.331Z,101262.81
2022-08-17T07:30:10.252Z,101265.75
2022-08-17T07:35:21.120Z,101264.56
2022-08-17T07:40:49.960Z,101264.34
2022-08-17T07:46:22.294Z,101263.88
2022-08-17T07:51:36.508Z,101260.63
2022-08-17T07:56:42.648Z,101267.00
2022-08-17T08:01:57.476Z,101271.25
2022-08-17T08:07:11.532Z,101276.91
2022-08-17T08:12:23.090Z,101279.81
2022-08-17T08:17:36.594Z,101293.41
2022-08-17T08:23:00.605Z,101303.63
2022-08-17T08:28:13.476Z,101289.91
2022-08-17T08:33:45.122Z,101295.22
2022-08-17T08:38:56.701Z,101299.66
2022-08-17T08:44:18.911Z,101299.66
2022-08-17T08:50:02.006Z,101298.28
2022-08-17T08:55:16.763Z,101306.72
2022-08-17T09:00:20.153Z,101316.03
2022-08-17T09:05:54.175Z,101315.13
2022-08-17T09:11:06.488Z,101324.00
2022-08-17T09:16:23.150Z,101305.13
2022-08-17T09:21:48.440Z,101307.34
2022-08-17T09:26:59.664Z,101304.88
2022-08-17T09:32:10.016Z,101305.19
2022-08-17T09:37:24.803Z,101315.34
2022-08-17T09:42:31.231Z,101307.72
2022-08-17T09:47:48.369Z,101308.25
2022-08-17T09:52:58.337Z,101309.84
2022-08-17T09:58:21.282Z,101307.13
2022-08-17T10:03:34.296Z,101304.38
2022-08-17T10:08:54.186Z,101300.22
2022-08-17T10:14:36.885Z,101293.91
2022-08-17T10:19:39.513Z,101301.47
2022-08-17T10:25:22.366Z,101301.41
2022-08-17T10:30:31.129Z,101291.84
2022-08-17T10:35:42.160Z,101295.69
2022-08-17T10:41:05.940Z,101290.63
2022-08-17T10:46:35.455Z,101297.22
2022-08-17T10:51:39.689Z,101288.28
2022-08-17T10:56:45.040Z,101283.16
2022-08-17T11:01:58.828Z,101282.91
2022-08-17T11:07:33.008Z,101274.66
2022-08-17T11:13:01.235Z,101274.41
2022-08-17T11:18:05.990Z,101274.13
2022-08-17T11:23:10.735Z,101283.16
2022-08-17T11:28:48.718Z,101283.16
2022-08-17T11:34:00.191Z,101277.16
2022-08-17T11:39:15.648Z,101288.66
2022-08-17T11:44:51.709Z,101284.25
2022-08-17T11:50:36.805Z,101278.22
2022-08-17T11:55:41.907Z,101285.34
2022-08-17T12:00:49.225Z,101279.31
2022-08-17T12:06:00.284Z,101270.78
2022-08-17T12:11:18.977Z,101274.34
2022-08-17T12:16:44.328Z,101272.44
2022-08-17T12:21:54.540Z,101264.53
2022-08-17T12:27:04.520Z,101265.34
2022-08-17T12:32:09.766Z,101260.41
2022-08-17T12:37:23.335Z,101257.41
2022-08-17T12:42:29.451Z,101242.03
2022-08-17T12:47:37.128Z,101234.72
2022-08-17T12:52:45.785Z,101230.13
2022-08-17T12:57:48.542Z,101216.91
2022-08-17T13:03:09.662Z,101207.34
2022-08-17T13:08:27.200Z,101209.22
2022-08-17T13:13:31.895Z,101206.81
2022-08-17T13:18:44.937Z,101219.72
2022-08-17T13:24:00.632Z,101230.69
2022-08-17T13:29:25.073Z,101242.69
2022-08-17T13:34:31.372Z,101248.97
2022-08-17T13:39:43.499Z,101280.50
2022-08-17T13:44:46.962Z,101282.25
2022-08-17T13:49:51.469Z,101265.34
2022-08-17T13:55:01.061Z,101246.78
2022-08-17T14:00:13.221Z,101242.75
2022-08-17T14:05:15.018Z,101212.91
2022-08-17T14:10:20.762Z,101198.94
2022-08-17T14:15:24.698Z,101196.44
2022-08-17T14:20:49.504Z,101193.16
2022-08-17T14:25:53.445Z,101176.41
2022-08-17T14:31:03.406Z,101172.06
2022-08-17T14:36:05.221Z,101177.28
2022-08-17T14:41:09.291Z,101168.56
2022-08-17T14:46:12.392Z,101172.38
2022-08-17T14:51:14.576Z,101164.41
2022-08-17T14:56:19.945Z,101164.88
2022-08-17T15:01:22.312Z,101154.84
2022-08-17T15:06:24.885Z,101146.66
2022-08-17T15:11:29.706Z,101142.31
2022-08-17T15:16:36.013Z,101160.13
2022-08-17T15:21:41.593Z,101164.25
2022-08-17T15:26:44.477Z,101167.81
2022-08-17T15:31:48.814Z,101163.09
2022-08-17T15:36:50.700Z,101148.28
2022-08-17T15:41:58.577Z,101151.78
2022-08-17T15:47:01.228Z,101151.41
2022-08-17T15:52:24.191Z,101150.78
2022-08-17T15:57:33.947Z,101156.44
2022-08-17T16:03:44.835Z,101151.56
2022-08-17T16:08:02.296Z,101141.53
2022-08-17T16:13:04.605Z,101125.31
2022-08-17T16:18:13.173Z,101142.53
2022-08-17T16:23:21.831Z,101155.66
2022-08-17T16:28:29.865Z,101241.81
2022-08-17T16:33:39.498Z,101257.56
2022-08-17T16:38:41.286Z,101302.00
2022-08-17T16:43:45.621Z,101232.69
2022-08-17T16:48:49.623Z,101237.53
2022-08-17T16:53:57.796Z,101221.19
2022-08-17T16:59:21.136Z,101199.38
2022-08-17T17:04:35.192Z,101183.25
2022-08-17T17:09:46.469Z,101132.47
2022-08-17T17:14:59.257Z,101117.34
2022-08-17T17:20:17.757Z,101106.66
2022-08-17T17:25:30.477Z,101108.34
2022-08-17T17:30:42.612Z,101115.09
2022-08-17T17:35:53.429Z,101107.34
2022-08-17T17:41:03.015Z,101110.13
2022-08-17T17:46:28.109Z,101106.78
2022-08-17T17:52:09.111Z,101114.25
2022-08-17T17:57:12.544Z,101129.72
2022-08-17T18:02:51.423Z,101145.44
2022-08-17T18:08:19.895Z,101172.31
2022-08-17T18:13:54.254Z,101180.47
2022-08-17T18:18:57.775Z,101188.16
2022-08-17T18:24:05.466Z,101177.78
2022-08-17T18:29:15.817Z,101189.63
2022-08-17T18:34:46.473Z,101250.59
2022-08-17T18:39:51.390Z,101251.47
2022-08-17T18:44:55.351Z,101230.41
2022-08-17T18:50:23.065Z,101202.09
2022-08-17T18:55:31.420Z,101201.81
2022-08-17T19:00:38.184Z,101196.28
2022-08-17T19:05:44.406Z,101211.06
2022-08-17T19:10:49.329Z,101209.09
2022-08-17T19:16:13.841Z,101201.53
2022-08-17T19:21:20.558Z,101182.28
2022-08-17T19:26:55.209Z,101189.53
2022-08-17T19:31:55.324Z,101204.31
2022-08-17T19:37:09.081Z,101227.59
2022-08-17T19:42:20.108Z,101258.22
2022-08-17T19:47:55.414Z,101249.97
2022-08-17T19:53:23.366Z,101196.19
2022-08-17T19:58:33.800Z,101164.59
2022-08-17T20:04:00.525Z,101187.13
2022-08-17T20:09:14.998Z,101195.16
2022-08-17T20:14:38.228Z,101220.09
2022-08-17T20:19:51.901Z,101208.63
2022-08-17T20:24:55.065Z,101209.34
2022-08-17T20:30:10.339Z,101202.25
2022-08-17T20:35:17.250Z,101208.75
2022-08-17T20:40:23.291Z,101197.06
2022-08-17T20:45:27.307Z,101205.81
2022-08-17T20:50:37.940Z,101206.41
2022-08-17T20:55:51.937Z,101213.47
2022-08-17T21:00:57.376Z,101207.22
2022-08-17T21:06:16.848Z,101205.69
2022-08-17T21:11:58.202Z,101209.22
2022-08-17T21:17:17.543Z,101201.19
2022-08-17T21:22:38.134Z,101207.78
2022-08-17T21:28:02.582Z,101201.63
2022-08-17T21:33:31.871Z,101211.19
2022-08-17T21:38:42.896Z,101204.47
2022-08-17T21:43:48.295Z,101186.28
2022-08-17T21:48:54.457Z,101190.63
2022-08-17T21:54:04.178Z,101187.69
2022-08-17T21:59:13.250Z,101180.84
2022-08-17T22:04:14.953Z,101197.38
2022-08-17T22:09:34.069Z,101188.91
2022-08-17T22:14:53.044Z,101175.78
2022-08-17T22:20:01.471Z,101179.56
2022-08-17T22:25:08.575Z,101158.31
2022-08-17T22:30:31.414Z,101184.66
2022-08-17T22:35:36.578Z,101170.97
2022-08-17T22:40:41.377Z,101176.03
2022-08-17T22:45:53.421Z,101182.53
2022-08-17T22:51:12.774Z,101189.25
2022-08-17T22:56:40.999Z,101197.66
2022-08-17T23:01:45.481Z,101196.47
2022-08-17T23:06:50.075Z,101206.75
2022-08-17T23:11:59.460Z,101203.22
2022-08-17T23:17:04.082Z,101201.31
2022-08-17T23:22:08.710Z,101201.53
2022-08-17T23:27:15.938Z,101202.84
2022-08-17T23:32:22.235Z,101207.09
2022-08-17T23:37:27.119Z,101200.22
2022-08-17T23:42:31.692Z,101206.97
2022-08-17T23:47:33.460Z,101208.25
2022-08-17T23:52:41.210Z,101209.31
2022-08-17T23:57:45.200Z,101213.91
